Pioneer, California
Current Conditions -  °F | °C
As of 6:15 AM on Monday 24 Nov 2014 (Local Time) from KPVF Reporting Station
Clear Clear  
Wind Chill:   Ceiling: Unl
Heat Index:   Visibility: 10mi
Dew Point: -5°   Wind: 13mph
Humidity: 40%   Direction: 70°ENE
Pressure: 30.34"   Gusts: NA
Location:  38.43°N, 120.57°W
Report Text: KPVF 241415Z AUTO 07011KT 10SM CLR 08/M05 A3034 RMK AO1
Loading
Personal Weather Stations






























Interactive Weather Map New forecast layout! Learn more

10-Day Weather Forecast

Advertisements
Track Severe Weather on mobile